SHT12T EGLL-EGNT
Flight info
| Callsign | SHT12T |
|---|---|
| Flight time | 0h 40m |
| Altitude | 30000 |
| Route | ULTIB1J ULTIB T420 AKUPA UY250 RIMTO RIMTO2N |
| Aircraft | A319/M-SDE2E3FGHIJ1RWXY/S |
Departure
| Time | 2026-04-30 17:59 |
|---|---|
| Airport | London Heathrow Airport (EGLL) |
Arrival
| Time | 2026-04-30 18:39 |
|---|---|
| Airport | Newcastle International Airport (EGNT) |
| Time | Latitude | Longitude | Altitude | Speed | Heading |
|---|---|---|---|---|---|
| 2026-04-30 17:39 | 51.46932 | -0.48715 | 86 ft | 0 kts | 359° |
| 2026-04-30 17:48 | 51.46916 | -0.48715 | 90 ft | 4 kts | 359° |
| 2026-04-30 17:48 | 51.46876 | -0.48767 | 86 ft | 4 kts | 89° |
| 2026-04-30 17:49 | 51.46876 | -0.48793 | 86 ft | 0 kts | 89° |
| 2026-04-30 17:55 | 51.46702 | -0.48749 | 86 ft | 17 kts | 179° |
| 2026-04-30 17:56 | 51.46600 | -0.48767 | 90 ft | 0 kts | 199° |
| 2026-04-30 17:57 | 51.46478 | -0.48690 | 86 ft | 18 kts | 99° |
| 2026-04-30 17:58 | 51.46479 | -0.48403 | 87 ft | 49 kts | 89° |
| 2026-04-30 17:59 | 51.46513 | -0.42689 | 1532 ft | 157 kts | 90° |
| 2026-04-30 18:00 | 51.49806 | -0.35017 | 3571 ft | 255 kts | 55° |
| 2026-04-30 18:00 | 51.52612 | -0.28590 | 5944 ft | 273 kts | 75° |
| 2026-04-30 18:01 | 51.55295 | -0.22961 | 8118 ft | 296 kts | 26° |
| 2026-04-30 18:02 | 51.61566 | -0.23796 | 10858 ft | 315 kts | 340° |
| 2026-04-30 18:02 | 51.66961 | -0.28788 | 12001 ft | 361 kts | 328° |
| 2026-04-30 18:03 | 51.73616 | -0.35234 | 14075 ft | 378 kts | 329° |
| 2026-04-30 18:04 | 51.80448 | -0.41826 | 15950 ft | 388 kts | 329° |
| 2026-04-30 18:05 | 51.89827 | -0.50928 | 18542 ft | 400 kts | 329° |
| 2026-04-30 18:06 | 51.99518 | -0.60382 | 20724 ft | 414 kts | 329° |
| 2026-04-30 18:07 | 52.09577 | -0.70256 | 22788 ft | 430 kts | 328° |
| 2026-04-30 18:08 | 52.17352 | -0.77920 | 24179 ft | 441 kts | 328° |
| 2026-04-30 18:09 | 52.27964 | -0.88424 | 25840 ft | 451 kts | 328° |
| 2026-04-30 18:10 | 52.38778 | -0.99216 | 27493 ft | 460 kts | 328° |
| 2026-04-30 18:11 | 52.50486 | -1.08132 | 28886 ft | 472 kts | 351° |
| 2026-04-30 18:11 | 52.60359 | -1.08205 | 29966 ft | 477 kts | 4° |
| 2026-04-30 18:12 | 52.70128 | -1.07506 | 30139 ft | 458 kts | 4° |
| 2026-04-30 18:13 | 52.76466 | -1.07904 | 30189 ft | 458 kts | 350° |
| 2026-04-30 18:14 | 52.92101 | -1.12659 | 30201 ft | 457 kts | 350° |
| 2026-04-30 18:15 | 53.10853 | -1.18409 | 30220 ft | 456 kts | 350° |
| 2026-04-30 18:16 | 53.23291 | -1.22241 | 30244 ft | 456 kts | 350° |
| 2026-04-30 18:17 | 53.29566 | -1.24192 | 30222 ft | 455 kts | 349° |
| 2026-04-30 18:18 | 53.38864 | -1.27090 | 30223 ft | 455 kts | 349° |
| 2026-04-30 18:18 | 53.45124 | -1.28437 | 30223 ft | 454 kts | 356° |
| 2026-04-30 18:19 | 53.51424 | -1.29194 | 30221 ft | 454 kts | 357° |
| 2026-04-30 18:19 | 53.57674 | -1.30556 | 30222 ft | 454 kts | 344° |
| 2026-04-30 18:20 | 53.63424 | -1.34824 | 30223 ft | 452 kts | 327° |
| 2026-04-30 18:20 | 53.68818 | -1.40300 | 30224 ft | 453 kts | 327° |
| 2026-04-30 18:21 | 53.74215 | -1.45785 | 30233 ft | 453 kts | 327° |
| 2026-04-30 18:21 | 53.76921 | -1.48536 | 29995 ft | 454 kts | 327° |
| 2026-04-30 18:21 | 53.79627 | -1.51289 | 29710 ft | 454 kts | 327° |
| 2026-04-30 18:21 | 53.82337 | -1.54055 | 29426 ft | 454 kts | 327° |
| 2026-04-30 18:22 | 53.85037 | -1.56823 | 28861 ft | 455 kts | 327° |
| 2026-04-30 18:22 | 53.90471 | -1.62404 | 27691 ft | 458 kts | 327° |
| 2026-04-30 18:22 | 53.93197 | -1.65208 | 27094 ft | 459 kts | 327° |
| 2026-04-30 18:23 | 53.95923 | -1.68017 | 26517 ft | 459 kts | 327° |
| 2026-04-30 18:23 | 53.98657 | -1.70841 | 25933 ft | 459 kts | 327° |
| 2026-04-30 18:23 | 54.01384 | -1.73662 | 25375 ft | 458 kts | 327° |
| 2026-04-30 18:23 | 54.04107 | -1.76475 | 24682 ft | 460 kts | 327° |
| 2026-04-30 18:24 | 54.09513 | -1.82068 | 23517 ft | 449 kts | 327° |
| 2026-04-30 18:24 | 54.12169 | -1.84829 | 22818 ft | 445 kts | 327° |
| 2026-04-30 18:24 | 54.14796 | -1.87553 | 22188 ft | 440 kts | 329° |
| 2026-04-30 18:25 | 54.17567 | -1.89528 | 22022 ft | 425 kts | 347° |
| 2026-04-30 18:25 | 54.23295 | -1.90184 | 21141 ft | 406 kts | 0° |
| 2026-04-30 18:25 | 54.26098 | -1.90258 | 20486 ft | 401 kts | 0° |
| 2026-04-30 18:26 | 54.31603 | -1.90388 | 19192 ft | 390 kts | 0° |
| 2026-04-30 18:26 | 54.34306 | -1.90450 | 18564 ft | 386 kts | 0° |
| 2026-04-30 18:26 | 54.36973 | -1.90541 | 17832 ft | 382 kts | 357° |
| 2026-04-30 18:27 | 54.42030 | -1.92954 | 16353 ft | 376 kts | 340° |
| 2026-04-30 18:27 | 54.44491 | -1.94442 | 15624 ft | 374 kts | 340° |
| 2026-04-30 18:28 | 54.49373 | -1.97382 | 14227 ft | 370 kts | 340° |
| 2026-04-30 18:28 | 54.51796 | -1.98831 | 13483 ft | 368 kts | 340° |
| 2026-04-30 18:28 | 54.56603 | -2.01705 | 12086 ft | 362 kts | 340° |
| 2026-04-30 18:29 | 54.58968 | -2.03122 | 11418 ft | 359 kts | 340° |
| 2026-04-30 18:29 | 54.65775 | -2.07195 | 10297 ft | 326 kts | 340° |
| 2026-04-30 18:30 | 54.69321 | -2.09310 | 9566 ft | 319 kts | 340° |
| 2026-04-30 18:30 | 54.74100 | -2.12214 | 8792 ft | 300 kts | 340° |
| 2026-04-30 18:31 | 54.76028 | -2.13385 | 8662 ft | 288 kts | 340° |
| 2026-04-30 18:31 | 54.79728 | -2.15609 | 8108 ft | 279 kts | 340° |
| 2026-04-30 18:32 | 54.83373 | -2.17801 | 7408 ft | 274 kts | 340° |
| 2026-04-30 18:32 | 54.85218 | -2.18791 | 6902 ft | 278 kts | 349° |
| 2026-04-30 18:32 | 54.88947 | -2.18006 | 6220 ft | 266 kts | 28° |
| 2026-04-30 18:33 | 54.90474 | -2.16324 | 5964 ft | 257 kts | 47° |
| 2026-04-30 18:33 | 54.92433 | -2.11321 | 5341 ft | 252 kts | 72° |
| 2026-04-30 18:33 | 54.93176 | -2.08581 | 5012 ft | 249 kts | 71° |
| 2026-04-30 18:34 | 54.93905 | -2.05895 | 4677 ft | 243 kts | 72° |
| 2026-04-30 18:34 | 54.95314 | -2.00677 | 4048 ft | 233 kts | 71° |
| 2026-04-30 18:34 | 54.95991 | -1.98163 | 3742 ft | 225 kts | 71° |
| 2026-04-30 18:35 | 54.96645 | -1.95733 | 3457 ft | 218 kts | 71° |
| 2026-04-30 18:35 | 54.97279 | -1.93373 | 3168 ft | 212 kts | 72° |
| 2026-04-30 18:35 | 54.97894 | -1.91081 | 2886 ft | 206 kts | 72° |
| 2026-04-30 18:36 | 54.99056 | -1.86754 | 2376 ft | 187 kts | 73° |
| 2026-04-30 18:36 | 54.99593 | -1.84746 | 2112 ft | 180 kts | 73° |
| 2026-04-30 18:36 | 55.00565 | -1.81124 | 1662 ft | 146 kts | 73° |
| 2026-04-30 18:37 | 55.00968 | -1.79612 | 1464 ft | 132 kts | 73° |
| 2026-04-30 18:37 | 55.01345 | -1.78190 | 1294 ft | 128 kts | 73° |
| 2026-04-30 18:37 | 55.01707 | -1.76814 | 1131 ft | 122 kts | 73° |
| 2026-04-30 18:37 | 55.02054 | -1.75475 | 970 ft | 120 kts | 71° |
| 2026-04-30 18:38 | 55.02394 | -1.74152 | 763 ft | 121 kts | 71° |
| 2026-04-30 18:38 | 55.02766 | -1.72822 | 632 ft | 123 kts | 67° |
| 2026-04-30 18:38 | 55.03126 | -1.71486 | 435 ft | 121 kts | 69° |
| 2026-04-30 18:38 | 55.03482 | -1.70154 | 270 ft | 120 kts | 71° |
| 2026-04-30 18:39 | 55.03761 | -1.69100 | 254 ft | 59 kts | 65° |
| 2026-04-30 18:39 | 55.03884 | -1.68632 | 250 ft | 43 kts | 65° |
| 2026-04-30 18:39 | 55.04044 | -1.68294 | 248 ft | 28 kts | 36° |
| 2026-04-30 18:39 | 55.04147 | -1.68263 | 248 ft | 18 kts | 304° |
| 2026-04-30 18:40 | 55.04106 | -1.68485 | 249 ft | 22 kts | 245° |
| 2026-04-30 18:40 | 55.04034 | -1.68756 | 250 ft | 27 kts | 245° |
| 2026-04-30 18:40 | 55.03953 | -1.69061 | 252 ft | 29 kts | 245° |
| 2026-04-30 18:40 | 55.03864 | -1.69389 | 255 ft | 27 kts | 245° |
| 2026-04-30 18:41 | 55.03807 | -1.69651 | 258 ft | 25 kts | 253° |
| 2026-04-30 18:41 | 55.03775 | -1.69974 | 261 ft | 29 kts | 265° |
| 2026-04-30 18:41 | 55.03779 | -1.70279 | 265 ft | 16 kts | 274° |
| 2026-04-30 18:41 | 55.03730 | -1.70430 | 267 ft | 19 kts | 188° |
| 2026-04-30 18:42 | 55.03601 | -1.70499 | 267 ft | 22 kts | 240° |
| 2026-04-30 18:42 | 55.03628 | -1.70844 | 267 ft | 13 kts | 334° |
| 2026-04-30 18:42 | 55.03664 | -1.70846 | 267 ft | 1 kts | 4° |
| 2026-04-30 18:45 | 55.03672 | -1.70844 | 267 ft | 0 kts | 4° |